sensor_id;sensor_type;location;lat;lon;timestamp;P1;durP1;ratioP1;P2;durP2;ratioP2
84163;SDS011;74288;46.872;7.802;2023-11-21T00:00:14;5.17;;;0.83;;
84163;SDS011;74288;46.872;7.802;2023-11-21T00:02:40;4.55;;;0.85;;
84163;SDS011;74288;46.872;7.802;2023-11-21T00:05:07;3.75;;;1.00;;
84163;SDS011;74288;46.872;7.802;2023-11-21T00:07:34;3.10;;;0.80;;
84163;SDS011;74288;46.872;7.802;2023-11-21T00:10:00;3.38;;;0.70;;
84163;SDS011;74288;46.872;7.802;2023-11-21T00:12:26;3.50;;;0.80;;
84163;SDS011;74288;46.872;7.802;2023-11-21T00:14:54;5.55;;;1.17;;
84163;SDS011;74288;46.872;7.802;2023-11-21T00:17:20;5.80;;;0.95;;
84163;SDS011;74288;46.872;7.802;2023-11-21T00:19:46;5.70;;;0.80;;
84163;SDS011;74288;46.872;7.802;2023-11-21T00:22:12;4.30;;;0.60;;
84163;SDS011;74288;46.872;7.802;2023-11-21T00:24:38;3.63;;;0.70;;
84163;SDS011;74288;46.872;7.802;2023-11-21T00:27:04;3.80;;;0.90;;
84163;SDS011;74288;46.872;7.802;2023-11-21T00:29:31;4.53;;;0.80;;
84163;SDS011;74288;46.872;7.802;2023-11-21T00:31:57;4.07;;;0.80;;
84163;SDS011;74288;46.872;7.802;2023-11-21T00:34:23;3.60;;;0.75;;
84163;SDS011;74288;46.872;7.802;2023-11-21T00:36:49;2.60;;;0.93;;
84163;SDS011;74288;46.872;7.802;2023-11-21T00:39:15;4.18;;;0.68;;
84163;SDS011;74288;46.872;7.802;2023-11-21T00:41:41;4.28;;;0.70;;
84163;SDS011;74288;46.872;7.802;2023-11-21T00:44:07;3.42;;;0.80;;
84163;SDS011;74288;46.872;7.802;2023-11-21T00:46:33;2.47;;;0.70;;
84163;SDS011;74288;46.872;7.802;2023-11-21T00:48:59;5.33;;;0.90;;
84163;SDS011;74288;46.872;7.802;2023-11-21T00:51:25;3.53;;;0.70;;
84163;SDS011;74288;46.872;7.802;2023-11-21T00:53:51;2.83;;;0.70;;
84163;SDS011;74288;46.872;7.802;2023-11-21T00:56:17;5.82;;;0.90;;
84163;SDS011;74288;46.872;7.802;2023-11-21T00:58:42;2.70;;;0.70;;
84163;SDS011;74288;46.872;7.802;2023-11-21T01:01:14;4.95;;;0.80;;
84163;SDS011;74288;46.872;7.802;2023-11-21T01:03:40;3.28;;;0.80;;
84163;SDS011;74288;46.872;7.802;2023-11-21T01:06:06;5.50;;;0.82;;
84163;SDS011;74288;46.872;7.802;2023-11-21T01:08:33;3.15;;;0.77;;
84163;SDS011;74288;46.872;7.802;2023-11-21T01:10:58;2.50;;;0.75;;
84163;SDS011;74288;46.872;7.802;2023-11-21T01:13:24;2.28;;;0.60;;
84163;SDS011;74288;46.872;7.802;2023-11-21T01:15:52;3.75;;;0.80;;
84163;SDS011;74288;46.872;7.802;2023-11-21T01:18:18;3.27;;;0.70;;
84163;SDS011;74288;46.872;7.802;2023-11-21T01:20:44;3.13;;;0.70;;
84163;SDS011;74288;46.872;7.802;2023-11-21T01:23:12;6.05;;;0.68;;
84163;SDS011;74288;46.872;7.802;2023-11-21T01:25:38;2.78;;;0.60;;
84163;SDS011;74288;46.872;7.802;2023-11-21T01:28:03;2.13;;;0.70;;
84163;SDS011;74288;46.872;7.802;2023-11-21T01:30:30;1.85;;;0.68;;
84163;SDS011;74288;46.872;7.802;2023-11-21T01:32:57;3.42;;;0.70;;
84163;SDS011;74288;46.872;7.802;2023-11-21T01:35:23;2.03;;;0.70;;
84163;SDS011;74288;46.872;7.802;2023-11-21T01:37:49;3.10;;;0.70;;
84163;SDS011;74288;46.872;7.802;2023-11-21T01:40:15;3.88;;;0.60;;
84163;SDS011;74288;46.872;7.802;2023-11-21T01:42:41;6.00;;;0.90;;
84163;SDS011;74288;46.872;7.802;2023-11-21T01:45:08;6.85;;;0.88;;
84163;SDS011;74288;46.872;7.802;2023-11-21T01:47:34;2.67;;;0.60;;
84163;SDS011;74288;46.872;7.802;2023-11-21T01:50:01;2.97;;;0.63;;
84163;SDS011;74288;46.872;7.802;2023-11-21T01:52:29;2.70;;;0.70;;
84163;SDS011;74288;46.872;7.802;2023-11-21T01:54:55;3.60;;;0.93;;
84163;SDS011;74288;46.872;7.802;2023-11-21T01:57:21;2.50;;;0.65;;
84163;SDS011;74288;46.872;7.802;2023-11-21T01:59:48;3.00;;;0.80;;
84163;SDS011;74288;46.872;7.802;2023-11-21T02:02:15;2.92;;;0.60;;
84163;SDS011;74288;46.872;7.802;2023-11-21T02:04:41;2.45;;;0.60;;
84163;SDS011;74288;46.872;7.802;2023-11-21T02:07:07;4.13;;;0.80;;
84163;SDS011;74288;46.872;7.802;2023-11-21T02:09:33;3.40;;;1.17;;
84163;SDS011;74288;46.872;7.802;2023-11-21T02:12:03;5.32;;;1.48;;
84163;SDS011;74288;46.872;7.802;2023-11-21T02:14:29;4.70;;;1.20;;
84163;SDS011;74288;46.872;7.802;2023-11-21T02:16:55;2.75;;;1.10;;
84163;SDS011;74288;46.872;7.802;2023-11-21T02:19:26;4.50;;;1.00;;
84163;SDS011;74288;46.872;7.802;2023-11-21T02:21:52;4.07;;;1.00;;
84163;SDS011;74288;46.872;7.802;2023-11-21T02:24:22;3.60;;;0.80;;
84163;SDS011;74288;46.872;7.802;2023-11-21T02:26:48;3.92;;;0.88;;
84163;SDS011;74288;46.872;7.802;2023-11-21T02:29:20;6.72;;;2.47;;
84163;SDS011;74288;46.872;7.802;2023-11-21T02:31:53;4.03;;;1.20;;
84163;SDS011;74288;46.872;7.802;2023-11-21T02:34:20;2.70;;;0.80;;
84163;SDS011;74288;46.872;7.802;2023-11-21T02:36:46;2.95;;;0.82;;
84163;SDS011;74288;46.872;7.802;2023-11-21T02:39:14;2.60;;;0.80;;
84163;SDS011;74288;46.872;7.802;2023-11-21T02:41:41;2.88;;;0.80;;
84163;SDS011;74288;46.872;7.802;2023-11-21T02:44:07;2.35;;;0.90;;
84163;SDS011;74288;46.872;7.802;2023-11-21T02:46:34;32.57;;;6.67;;
84163;SDS011;74288;46.872;7.802;2023-11-21T02:49:00;14.82;;;3.45;;
84163;SDS011;74288;46.872;7.802;2023-11-21T02:51:26;4.70;;;1.20;;
84163;SDS011;74288;46.872;7.802;2023-11-21T02:53:52;3.30;;;0.88;;
84163;SDS011;74288;46.872;7.802;2023-11-21T02:56:19;2.42;;;0.88;;
84163;SDS011;74288;46.872;7.802;2023-11-21T02:58:45;4.80;;;1.10;;
84163;SDS011;74288;46.872;7.802;2023-11-21T03:01:11;3.30;;;0.80;;
84163;SDS011;74288;46.872;7.802;2023-11-21T03:03:38;3.80;;;0.85;;
84163;SDS011;74288;46.872;7.802;2023-11-21T03:06:08;2.47;;;0.90;;
84163;SDS011;74288;46.872;7.802;2023-11-21T03:08:34;4.13;;;0.80;;
84163;SDS011;74288;46.872;7.802;2023-11-21T03:11:00;3.40;;;0.80;;
84163;SDS011;74288;46.872;7.802;2023-11-21T03:13:28;2.42;;;0.80;;
84163;SDS011;74288;46.872;7.802;2023-11-21T03:15:54;2.13;;;0.90;;
84163;SDS011;74288;46.872;7.802;2023-11-21T03:18:20;3.78;;;0.80;;
84163;SDS011;74288;46.872;7.802;2023-11-21T03:20:49;2.77;;;0.70;;
84163;SDS011;74288;46.872;7.802;2023-11-21T03:23:15;4.53;;;0.80;;
84163;SDS011;74288;46.872;7.802;2023-11-21T03:25:41;4.95;;;1.00;;
84163;SDS011;74288;46.872;7.802;2023-11-21T03:28:08;3.65;;;1.05;;
84163;SDS011;74288;46.872;7.802;2023-11-21T03:30:33;3.53;;;1.30;;
84163;SDS011;74288;46.872;7.802;2023-11-21T03:33:00;4.95;;;2.00;;
84163;SDS011;74288;46.872;7.802;2023-11-21T03:35:26;3.80;;;1.30;;
84163;SDS011;74288;46.872;7.802;2023-11-21T03:37:52;2.80;;;1.25;;
84163;SDS011;74288;46.872;7.802;2023-11-21T03:40:18;3.17;;;1.10;;
84163;SDS011;74288;46.872;7.802;2023-11-21T03:42:46;5.70;;;1.30;;
84163;SDS011;74288;46.872;7.802;2023-11-21T03:45:12;3.60;;;1.40;;
84163;SDS011;74288;46.872;7.802;2023-11-21T03:47:39;3.60;;;1.40;;
84163;SDS011;74288;46.872;7.802;2023-11-21T03:50:05;3.85;;;1.20;;
84163;SDS011;74288;46.872;7.802;2023-11-21T03:52:31;3.72;;;1.00;;
84163;SDS011;74288;46.872;7.802;2023-11-21T03:54:57;4.63;;;0.87;;
84163;SDS011;74288;46.872;7.802;2023-11-21T03:57:23;3.92;;;1.00;;
84163;SDS011;74288;46.872;7.802;2023-11-21T03:59:49;3.60;;;0.98;;
84163;SDS011;74288;46.872;7.802;2023-11-21T04:02:15;4.97;;;0.90;;
84163;SDS011;74288;46.872;7.802;2023-11-21T04:04:42;3.38;;;0.90;;
84163;SDS011;74288;46.872;7.802;2023-11-21T04:07:08;4.60;;;1.00;;
84163;SDS011;74288;46.872;7.802;2023-11-21T04:09:34;5.10;;;1.30;;
84163;SDS011;74288;46.872;7.802;2023-11-21T04:12:01;3.63;;;1.27;;
84163;SDS011;74288;46.872;7.802;2023-11-21T04:14:27;3.20;;;0.80;;
84163;SDS011;74288;46.872;7.802;2023-11-21T04:16:53;3.40;;;0.90;;
84163;SDS011;74288;46.872;7.802;2023-11-21T04:19:19;2.75;;;0.70;;
84163;SDS011;74288;46.872;7.802;2023-11-21T04:21:45;3.40;;;0.82;;
84163;SDS011;74288;46.872;7.802;2023-11-21T04:24:11;3.00;;;0.90;;
84163;SDS011;74288;46.872;7.802;2023-11-21T04:26:37;3.40;;;0.82;;
84163;SDS011;74288;46.872;7.802;2023-11-21T04:29:03;3.08;;;0.85;;
84163;SDS011;74288;46.872;7.802;2023-11-21T04:31:29;3.10;;;0.80;;
84163;SDS011;74288;46.872;7.802;2023-11-21T04:33:55;2.47;;;0.70;;
84163;SDS011;74288;46.872;7.802;2023-11-21T04:36:21;2.67;;;0.60;;
84163;SDS011;74288;46.872;7.802;2023-11-21T04:38:47;2.25;;;0.70;;
84163;SDS011;74288;46.872;7.802;2023-11-21T04:41:13;2.83;;;0.80;;
84163;SDS011;74288;46.872;7.802;2023-11-21T04:43:39;4.10;;;0.80;;
84163;SDS011;74288;46.872;7.802;2023-11-21T04:46:05;2.88;;;0.70;;
84163;SDS011;74288;46.872;7.802;2023-11-21T04:48:32;2.42;;;0.70;;
84163;SDS011;74288;46.872;7.802;2023-11-21T04:50:58;2.53;;;0.80;;
84163;SDS011;74288;46.872;7.802;2023-11-21T04:53:24;3.83;;;0.80;;
84163;SDS011;74288;46.872;7.802;2023-11-21T04:55:50;2.80;;;0.80;;
84163;SDS011;74288;46.872;7.802;2023-11-21T04:58:16;2.15;;;0.60;;
84163;SDS011;74288;46.872;7.802;2023-11-21T05:00:42;1.90;;;0.70;;
84163;SDS011;74288;46.872;7.802;2023-11-21T05:03:09;3.20;;;0.70;;
84163;SDS011;74288;46.872;7.802;2023-11-21T05:05:35;3.10;;;0.80;;
84163;SDS011;74288;46.872;7.802;2023-11-21T05:08:01;3.00;;;0.80;;
84163;SDS011;74288;46.872;7.802;2023-11-21T05:10:27;2.35;;;0.80;;
84163;SDS011;74288;46.872;7.802;2023-11-21T05:12:54;3.23;;;0.90;;
84163;SDS011;74288;46.872;7.802;2023-11-21T05:15:20;3.00;;;0.70;;
84163;SDS011;74288;46.872;7.802;2023-11-21T05:17:46;2.17;;;0.98;;
84163;SDS011;74288;46.872;7.802;2023-11-21T05:20:15;3.88;;;1.08;;
84163;SDS011;74288;46.872;7.802;2023-11-21T05:22:49;6.60;;;1.60;;
84163;SDS011;74288;46.872;7.802;2023-11-21T05:25:15;11.97;;;4.33;;
84163;SDS011;74288;46.872;7.802;2023-11-21T05:27:43;6.63;;;2.30;;
84163;SDS011;74288;46.872;7.802;2023-11-21T05:30:09;9.38;;;3.00;;
84163;SDS011;74288;46.872;7.802;2023-11-21T05:32:37;9.32;;;3.00;;
84163;SDS011;74288;46.872;7.802;2023-11-21T05:35:04;8.18;;;2.55;;
84163;SDS011;74288;46.872;7.802;2023-11-21T05:37:37;5.67;;;2.10;;
84163;SDS011;74288;46.872;7.802;2023-11-21T05:40:04;6.15;;;2.25;;
84163;SDS011;74288;46.872;7.802;2023-11-21T05:42:34;5.80;;;1.70;;
84163;SDS011;74288;46.872;7.802;2023-11-21T05:45:00;7.00;;;1.70;;
84163;SDS011;74288;46.872;7.802;2023-11-21T05:47:42;5.32;;;1.35;;
84163;SDS011;74288;46.872;7.802;2023-11-21T05:50:09;3.13;;;1.10;;
84163;SDS011;74288;46.872;7.802;2023-11-21T05:52:39;4.32;;;1.20;;
84163;SDS011;74288;46.872;7.802;2023-11-21T05:55:05;4.10;;;1.38;;
84163;SDS011;74288;46.872;7.802;2023-11-21T05:57:35;5.90;;;1.80;;
84163;SDS011;74288;46.872;7.802;2023-11-21T06:00:05;6.82;;;1.73;;
84163;SDS011;74288;46.872;7.802;2023-11-21T06:02:36;5.80;;;1.60;;
84163;SDS011;74288;46.872;7.802;2023-11-21T06:05:03;4.95;;;1.40;;
84163;SDS011;74288;46.872;7.802;2023-11-21T06:07:29;3.25;;;1.10;;
84163;SDS011;74288;46.872;7.802;2023-11-21T06:09:55;5.40;;;1.20;;
84163;SDS011;74288;46.872;7.802;2023-11-21T06:12:21;6.45;;;1.45;;
84163;SDS011;74288;46.872;7.802;2023-11-21T06:14:47;3.77;;;1.40;;
84163;SDS011;74288;46.872;7.802;2023-11-21T06:17:13;4.38;;;1.40;;
84163;SDS011;74288;46.872;7.802;2023-11-21T06:19:39;4.68;;;1.60;;
84163;SDS011;74288;46.872;7.802;2023-11-21T06:22:05;3.83;;;1.40;;
84163;SDS011;74288;46.872;7.802;2023-11-21T06:24:31;4.57;;;1.43;;
84163;SDS011;74288;46.872;7.802;2023-11-21T06:26:57;3.92;;;1.60;;
84163;SDS011;74288;46.872;7.802;2023-11-21T06:29:23;4.25;;;1.80;;
84163;SDS011;74288;46.872;7.802;2023-11-21T06:31:49;4.70;;;1.55;;
84163;SDS011;74288;46.872;7.802;2023-11-21T06:34:15;6.43;;;2.20;;
84163;SDS011;74288;46.872;7.802;2023-11-21T06:36:41;6.10;;;2.33;;
84163;SDS011;74288;46.872;7.802;2023-11-21T06:39:07;6.63;;;1.80;;
84163;SDS011;74288;46.872;7.802;2023-11-21T06:41:33;4.33;;;1.63;;
84163;SDS011;74288;46.872;7.802;2023-11-21T06:43:59;3.97;;;1.50;;
84163;SDS011;74288;46.872;7.802;2023-11-21T06:46:25;3.40;;;1.20;;
84163;SDS011;74288;46.872;7.802;2023-11-21T06:48:51;3.78;;;1.30;;
84163;SDS011;74288;46.872;7.802;2023-11-21T06:51:17;4.30;;;1.67;;
84163;SDS011;74288;46.872;7.802;2023-11-21T06:53:43;3.42;;;1.40;;
84163;SDS011;74288;46.872;7.802;2023-11-21T06:56:16;4.50;;;1.55;;
84163;SDS011;74288;46.872;7.802;2023-11-21T06:58:43;3.95;;;1.58;;
84163;SDS011;74288;46.872;7.802;2023-11-21T07:01:10;5.30;;;1.97;;
84163;SDS011;74288;46.872;7.802;2023-11-21T07:03:36;6.57;;;2.45;;
84163;SDS011;74288;46.872;7.802;2023-11-21T07:06:03;5.18;;;2.20;;
84163;SDS011;74288;46.872;7.802;2023-11-21T07:08:29;6.88;;;2.55;;
84163;SDS011;74288;46.872;7.802;2023-11-21T07:10:54;5.22;;;2.55;;
84163;SDS011;74288;46.872;7.802;2023-11-21T07:13:20;6.60;;;2.43;;
84163;SDS011;74288;46.872;7.802;2023-11-21T07:15:46;7.53;;;3.35;;
84163;SDS011;74288;46.872;7.802;2023-11-21T07:18:13;6.90;;;3.15;;
84163;SDS011;74288;46.872;7.802;2023-11-21T07:20:39;7.47;;;2.95;;
84163;SDS011;74288;46.872;7.802;2023-11-21T07:23:05;8.00;;;3.50;;
84163;SDS011;74288;46.872;7.802;2023-11-21T07:25:31;7.18;;;2.80;;
84163;SDS011;74288;46.872;7.802;2023-11-21T07:27:58;5.60;;;1.90;;
84163;SDS011;74288;46.872;7.802;2023-11-21T07:30:24;4.80;;;1.38;;
84163;SDS011;74288;46.872;7.802;2023-11-21T07:32:50;3.40;;;1.20;;
84163;SDS011;74288;46.872;7.802;2023-11-21T07:35:16;4.80;;;0.98;;
84163;SDS011;74288;46.872;7.802;2023-11-21T07:37:42;3.55;;;1.20;;
84163;SDS011;74288;46.872;7.802;2023-11-21T07:40:08;3.22;;;1.00;;
84163;SDS011;74288;46.872;7.802;2023-11-21T07:42:36;3.37;;;1.17;;
84163;SDS011;74288;46.872;7.802;2023-11-21T07:45:02;3.83;;;1.00;;
84163;SDS011;74288;46.872;7.802;2023-11-21T07:47:28;3.85;;;1.15;;
84163;SDS011;74288;46.872;7.802;2023-11-21T07:49:54;8.20;;;2.88;;
84163;SDS011;74288;46.872;7.802;2023-11-21T07:52:21;4.53;;;1.50;;
84163;SDS011;74288;46.872;7.802;2023-11-21T07:54:47;4.68;;;1.80;;
84163;SDS011;74288;46.872;7.802;2023-11-21T07:57:13;5.90;;;1.50;;
84163;SDS011;74288;46.872;7.802;2023-11-21T07:59:39;3.10;;;1.13;;
84163;SDS011;74288;46.872;7.802;2023-11-21T08:02:08;4.18;;;1.20;;
84163;SDS011;74288;46.872;7.802;2023-11-21T08:04:34;2.93;;;1.20;;
84163;SDS011;74288;46.872;7.802;2023-11-21T08:07:00;3.53;;;1.10;;
84163;SDS011;74288;46.872;7.802;2023-11-21T08:09:27;2.85;;;1.10;;
84163;SDS011;74288;46.872;7.802;2023-11-21T08:11:53;3.65;;;0.90;;
84163;SDS011;74288;46.872;7.802;2023-11-21T08:14:19;2.67;;;1.00;;
84163;SDS011;74288;46.872;7.802;2023-11-21T08:16:45;2.63;;;0.80;;
84163;SDS011;74288;46.872;7.802;2023-11-21T08:19:12;3.65;;;1.08;;
84163;SDS011;74288;46.872;7.802;2023-11-21T08:21:38;3.42;;;1.10;;
84163;SDS011;74288;46.872;7.802;2023-11-21T08:24:05;3.67;;;1.10;;
84163;SDS011;74288;46.872;7.802;2023-11-21T08:26:35;3.90;;;1.47;;
84163;SDS011;74288;46.872;7.802;2023-11-21T08:29:01;6.07;;;2.03;;
84163;SDS011;74288;46.872;7.802;2023-11-21T08:31:27;3.80;;;1.58;;
84163;SDS011;74288;46.872;7.802;2023-11-21T08:33:54;5.15;;;1.20;;
84163;SDS011;74288;46.872;7.802;2023-11-21T08:36:20;4.17;;;1.40;;
84163;SDS011;74288;46.872;7.802;2023-11-21T08:38:48;3.60;;;1.30;;
84163;SDS011;74288;46.872;7.802;2023-11-21T08:41:14;3.35;;;1.30;;
84163;SDS011;74288;46.872;7.802;2023-11-21T08:43:41;2.83;;;1.00;;
84163;SDS011;74288;46.872;7.802;2023-11-21T08:46:07;3.13;;;0.90;;
84163;SDS011;74288;46.872;7.802;2023-11-21T08:48:36;2.47;;;1.10;;
84163;SDS011;74288;46.872;7.802;2023-11-21T08:51:03;3.05;;;1.08;;
84163;SDS011;74288;46.872;7.802;2023-11-21T08:53:29;2.35;;;1.00;;
84163;SDS011;74288;46.872;7.802;2023-11-21T08:55:56;3.17;;;1.30;;
84163;SDS011;74288;46.872;7.802;2023-11-21T08:58:22;3.90;;;1.30;;
84163;SDS011;74288;46.872;7.802;2023-11-21T09:00:48;3.73;;;1.50;;
84163;SDS011;74288;46.872;7.802;2023-11-21T09:03:14;3.22;;;1.60;;
84163;SDS011;74288;46.872;7.802;2023-11-21T09:05:40;3.45;;;1.27;;
84163;SDS011;74288;46.872;7.802;2023-11-21T09:08:06;3.70;;;1.00;;
84163;SDS011;74288;46.872;7.802;2023-11-21T09:10:33;3.27;;;1.00;;
84163;SDS011;74288;46.872;7.802;2023-11-21T09:13:02;2.78;;;0.90;;
84163;SDS011;74288;46.872;7.802;2023-11-21T09:15:28;3.67;;;1.20;;
84163;SDS011;74288;46.872;7.802;2023-11-21T09:17:54;2.88;;;1.08;;
84163;SDS011;74288;46.872;7.802;2023-11-21T09:20:21;3.00;;;1.17;;
84163;SDS011;74288;46.872;7.802;2023-11-21T09:22:48;3.23;;;1.20;;
84163;SDS011;74288;46.872;7.802;2023-11-21T09:25:14;3.03;;;1.20;;
84163;SDS011;74288;46.872;7.802;2023-11-21T09:27:40;2.70;;;1.00;;
84163;SDS011;74288;46.872;7.802;2023-11-21T09:30:06;3.97;;;1.20;;
84163;SDS011;74288;46.872;7.802;2023-11-21T09:32:37;3.25;;;1.10;;
84163;SDS011;74288;46.872;7.802;2023-11-21T09:35:04;2.97;;;0.90;;
84163;SDS011;74288;46.872;7.802;2023-11-21T09:37:30;4.65;;;1.13;;
84163;SDS011;74288;46.872;7.802;2023-11-21T09:39:56;3.03;;;1.00;;
84163;SDS011;74288;46.872;7.802;2023-11-21T09:42:25;3.38;;;1.10;;
84163;SDS011;74288;46.872;7.802;2023-11-21T09:47:23;2.50;;;1.00;;
84163;SDS011;74288;46.872;7.802;2023-11-21T09:49:49;3.28;;;1.05;;
84163;SDS011;74288;46.872;7.802;2023-11-21T09:52:18;3.60;;;1.13;;
84163;SDS011;74288;46.872;7.802;2023-11-21T09:54:46;3.67;;;1.10;;
84163;SDS011;74288;46.872;7.802;2023-11-21T09:57:12;3.87;;;1.17;;
84163;SDS011;74288;46.872;7.802;2023-11-21T09:59:39;2.28;;;0.93;;
84163;SDS011;74288;46.872;7.802;2023-11-21T10:02:06;3.80;;;1.10;;
84163;SDS011;74288;46.872;7.802;2023-11-21T10:04:37;4.63;;;1.10;;
84163;SDS011;74288;46.872;7.802;2023-11-21T10:07:03;3.17;;;1.08;;
84163;SDS011;74288;46.872;7.802;2023-11-21T10:09:33;3.80;;;1.20;;
84163;SDS011;74288;46.872;7.802;2023-11-21T10:12:00;4.00;;;1.20;;
84163;SDS011;74288;46.872;7.802;2023-11-21T10:14:26;3.40;;;1.30;;
84163;SDS011;74288;46.872;7.802;2023-11-21T10:16:54;4.35;;;1.20;;
84163;SDS011;74288;46.872;7.802;2023-11-21T10:19:21;3.33;;;1.20;;
84163;SDS011;74288;46.872;7.802;2023-11-21T10:21:49;3.60;;;1.10;;
84163;SDS011;74288;46.872;7.802;2023-11-21T10:24:16;3.25;;;1.00;;
84163;SDS011;74288;46.872;7.802;2023-11-21T10:26:43;2.42;;;1.05;;
84163;SDS011;74288;46.872;7.802;2023-11-21T10:29:10;3.08;;;1.08;;
84163;SDS011;74288;46.872;7.802;2023-11-21T10:31:41;3.08;;;1.05;;
84163;SDS011;74288;46.872;7.802;2023-11-21T10:34:13;3.07;;;1.00;;
84163;SDS011;74288;46.872;7.802;2023-11-21T10:36:40;3.25;;;1.00;;
84163;SDS011;74288;46.872;7.802;2023-11-21T10:39:06;4.40;;;1.00;;
84163;SDS011;74288;46.872;7.802;2023-11-21T10:41:32;1.95;;;0.70;;
84163;SDS011;74288;46.872;7.802;2023-11-21T10:43:59;2.88;;;0.77;;
84163;SDS011;74288;46.872;7.802;2023-11-21T10:46:25;2.50;;;0.70;;
84163;SDS011;74288;46.872;7.802;2023-11-21T10:48:54;1.48;;;0.60;;
84163;SDS011;74288;46.872;7.802;2023-11-21T10:51:21;1.35;;;0.60;;
84163;SDS011;74288;46.872;7.802;2023-11-21T10:53:49;1.98;;;0.60;;
84163;SDS011;74288;46.872;7.802;2023-11-21T10:56:16;1.67;;;0.90;;
84163;SDS011;74288;46.872;7.802;2023-11-21T10:58:44;2.50;;;0.77;;
84163;SDS011;74288;46.872;7.802;2023-11-21T11:01:10;3.22;;;0.90;;
84163;SDS011;74288;46.872;7.802;2023-11-21T11:03:39;2.95;;;0.70;;
84163;SDS011;74288;46.872;7.802;2023-11-21T11:06:05;3.85;;;0.70;;
84163;SDS011;74288;46.872;7.802;2023-11-21T11:08:36;2.37;;;0.90;;
84163;SDS011;74288;46.872;7.802;2023-11-21T11:11:02;2.53;;;0.80;;
84163;SDS011;74288;46.872;7.802;2023-11-21T11:13:28;2.20;;;0.70;;
84163;SDS011;74288;46.872;7.802;2023-11-21T11:15:57;2.67;;;0.70;;
84163;SDS011;74288;46.872;7.802;2023-11-21T11:18:30;2.75;;;0.70;;
84163;SDS011;74288;46.872;7.802;2023-11-21T11:21:18;2.47;;;0.70;;
84163;SDS011;74288;46.872;7.802;2023-11-21T11:24:03;2.28;;;0.70;;
84163;SDS011;74288;46.872;7.802;2023-11-21T11:29:18;3.30;;;0.80;;
84163;SDS011;74288;46.872;7.802;2023-11-21T11:34:32;2.30;;;1.00;;
84163;SDS011;74288;46.872;7.802;2023-11-21T11:37:02;2.50;;;0.90;;
84163;SDS011;74288;46.872;7.802;2023-11-21T11:39:35;2.38;;;0.70;;
84163;SDS011;74288;46.872;7.802;2023-11-21T11:42:02;1.98;;;0.68;;
84163;SDS011;74288;46.872;7.802;2023-11-21T11:47:23;3.60;;;0.80;;
84163;SDS011;74288;46.872;7.802;2023-11-21T11:50:04;2.88;;;1.00;;
84163;SDS011;74288;46.872;7.802;2023-11-21T11:52:37;3.10;;;0.80;;
84163;SDS011;74288;46.872;7.802;2023-11-21T11:55:08;3.10;;;0.73;;
84163;SDS011;74288;46.872;7.802;2023-11-21T11:57:38;2.60;;;0.80;;
84163;SDS011;74288;46.872;7.802;2023-11-21T12:00:12;1.80;;;0.80;;
84163;SDS011;74288;46.872;7.802;2023-11-21T12:02:41;2.70;;;0.70;;
84163;SDS011;74288;46.872;7.802;2023-11-21T12:05:14;3.92;;;0.70;;
84163;SDS011;74288;46.872;7.802;2023-11-21T12:07:44;2.67;;;0.73;;
84163;SDS011;74288;46.872;7.802;2023-11-21T12:10:14;1.53;;;0.70;;
84163;SDS011;74288;46.872;7.802;2023-11-21T12:12:43;2.00;;;0.70;;
84163;SDS011;74288;46.872;7.802;2023-11-21T12:15:10;1.65;;;0.70;;
84163;SDS011;74288;46.872;7.802;2023-11-21T12:17:37;2.22;;;0.70;;
84163;SDS011;74288;46.872;7.802;2023-11-21T12:20:03;3.50;;;0.90;;
84163;SDS011;74288;46.872;7.802;2023-11-21T12:22:30;2.93;;;0.70;;
84163;SDS011;74288;46.872;7.802;2023-11-21T12:24:57;1.58;;;0.70;;
84163;SDS011;74288;46.872;7.802;2023-11-21T12:27:23;3.92;;;0.80;;
84163;SDS011;74288;46.872;7.802;2023-11-21T12:29:50;3.58;;;0.80;;
84163;SDS011;74288;46.872;7.802;2023-11-21T12:32:16;3.72;;;0.80;;
84163;SDS011;74288;46.872;7.802;2023-11-21T12:34:43;2.37;;;0.60;;
84163;SDS011;74288;46.872;7.802;2023-11-21T12:37:09;2.45;;;0.80;;
84163;SDS011;74288;46.872;7.802;2023-11-21T12:39:35;2.00;;;0.80;;
84163;SDS011;74288;46.872;7.802;2023-11-21T12:42:01;1.73;;;0.60;;
84163;SDS011;74288;46.872;7.802;2023-11-21T12:44:27;2.45;;;0.90;;
84163;SDS011;74288;46.872;7.802;2023-11-21T12:46:54;2.47;;;0.90;;
84163;SDS011;74288;46.872;7.802;2023-11-21T12:49:20;3.08;;;0.90;;
84163;SDS011;74288;46.872;7.802;2023-11-21T12:51:47;2.78;;;0.80;;
84163;SDS011;74288;46.872;7.802;2023-11-21T12:54:13;4.80;;;0.95;;
84163;SDS011;74288;46.872;7.802;2023-11-21T12:56:39;2.20;;;0.80;;
84163;SDS011;74288;46.872;7.802;2023-11-21T12:59:05;2.97;;;0.83;;
84163;SDS011;74288;46.872;7.802;2023-11-21T13:01:31;5.25;;;1.20;;
84163;SDS011;74288;46.872;7.802;2023-11-21T13:03:57;3.60;;;1.13;;
84163;SDS011;74288;46.872;7.802;2023-11-21T13:06:23;4.70;;;1.00;;
84163;SDS011;74288;46.872;7.802;2023-11-21T13:08:51;3.77;;;0.90;;
84163;SDS011;74288;46.872;7.802;2023-11-21T13:11:17;3.28;;;0.70;;
84163;SDS011;74288;46.872;7.802;2023-11-21T13:13:43;1.88;;;0.70;;
84163;SDS011;74288;46.872;7.802;2023-11-21T13:16:09;1.85;;;0.65;;
84163;SDS011;74288;46.872;7.802;2023-11-21T13:18:35;2.37;;;0.70;;
84163;SDS011;74288;46.872;7.802;2023-11-21T13:21:02;1.38;;;0.50;;
84163;SDS011;74288;46.872;7.802;2023-11-21T13:23:39;2.25;;;0.60;;
84163;SDS011;74288;46.872;7.802;2023-11-21T13:26:06;1.30;;;0.60;;
84163;SDS011;74288;46.872;7.802;2023-11-21T13:28:33;1.42;;;0.50;;
84163;SDS011;74288;46.872;7.802;2023-11-21T13:31:00;3.07;;;0.70;;
84163;SDS011;74288;46.872;7.802;2023-11-21T13:33:34;1.83;;;0.55;;
84163;SDS011;74288;46.872;7.802;2023-11-21T13:36:03;1.10;;;0.50;;
84163;SDS011;74288;46.872;7.802;2023-11-21T13:38:32;1.67;;;0.40;;
84163;SDS011;74288;46.872;7.802;2023-11-21T13:41:00;1.15;;;0.43;;
84163;SDS011;74288;46.872;7.802;2023-11-21T13:43:26;1.03;;;0.43;;
84163;SDS011;74288;46.872;7.802;2023-11-21T13:45:54;1.00;;;0.40;;
84163;SDS011;74288;46.872;7.802;2023-11-21T13:48:38;1.10;;;0.40;;
84163;SDS011;74288;46.872;7.802;2023-11-21T13:51:16;1.35;;;0.43;;
84163;SDS011;74288;46.872;7.802;2023-11-21T13:53:45;1.73;;;0.30;;
84163;SDS011;74288;46.872;7.802;2023-11-21T13:56:14;0.70;;;0.40;;
84163;SDS011;74288;46.872;7.802;2023-11-21T13:58:50;0.60;;;0.30;;
84163;SDS011;74288;46.872;7.802;2023-11-21T14:01:18;0.80;;;0.40;;
84163;SDS011;74288;46.872;7.802;2023-11-21T14:03:56;1.35;;;0.40;;
84163;SDS011;74288;46.872;7.802;2023-11-21T14:06:26;2.10;;;0.50;;
84163;SDS011;74288;46.872;7.802;2023-11-21T14:08:59;1.80;;;0.47;;
84163;SDS011;74288;46.872;7.802;2023-11-21T14:11:30;1.02;;;0.47;;
84163;SDS011;74288;46.872;7.802;2023-11-21T14:13:56;1.38;;;0.40;;
84163;SDS011;74288;46.872;7.802;2023-11-21T14:16:24;0.80;;;0.40;;
84163;SDS011;74288;46.872;7.802;2023-11-21T14:18:50;0.87;;;0.40;;
84163;SDS011;74288;46.872;7.802;2023-11-21T14:21:26;1.10;;;0.30;;
84163;SDS011;74288;46.872;7.802;2023-11-21T14:23:52;0.60;;;0.30;;
84163;SDS011;74288;46.872;7.802;2023-11-21T14:26:21;1.00;;;0.40;;
84163;SDS011;74288;46.872;7.802;2023-11-21T14:28:49;1.55;;;0.40;;
84163;SDS011;74288;46.872;7.802;2023-11-21T14:31:16;0.80;;;0.40;;
84163;SDS011;74288;46.872;7.802;2023-11-21T14:33:43;2.58;;;0.60;;
84163;SDS011;74288;46.872;7.802;2023-11-21T14:36:10;2.90;;;0.47;;
84163;SDS011;74288;46.872;7.802;2023-11-21T14:38:36;0.85;;;0.40;;
84163;SDS011;74288;46.872;7.802;2023-11-21T14:41:04;0.70;;;0.40;;
84163;SDS011;74288;46.872;7.802;2023-11-21T14:43:32;0.73;;;0.40;;
84163;SDS011;74288;46.872;7.802;2023-11-21T14:46:00;1.15;;;0.50;;
84163;SDS011;74288;46.872;7.802;2023-11-21T14:48:27;4.30;;;1.48;;
84163;SDS011;74288;46.872;7.802;2023-11-21T14:51:08;1.95;;;0.60;;
84163;SDS011;74288;46.872;7.802;2023-11-21T14:53:53;1.13;;;0.50;;
84163;SDS011;74288;46.872;7.802;2023-11-21T14:56:22;1.03;;;0.50;;
84163;SDS011;74288;46.872;7.802;2023-11-21T14:58:52;0.80;;;0.40;;